sensor_id;sensor_type;location;lat;lon;timestamp;P1;durP1;ratioP1;P2;durP2;ratioP2
4232;SDS011;2130;48.472;11.934;2024-03-02T00:00:42;13.70;;;5.23;;
4232;SDS011;2130;48.472;11.934;2024-03-02T00:03:10;31.33;;;9.60;;
4232;SDS011;2130;48.472;11.934;2024-03-02T00:05:41;14.33;;;4.93;;
4232;SDS011;2130;48.472;11.934;2024-03-02T00:08:09;12.80;;;4.80;;
4232;SDS011;2130;48.472;11.934;2024-03-02T00:10:37;15.07;;;4.53;;
4232;SDS011;2130;48.472;11.934;2024-03-02T00:13:08;11.60;;;4.30;;
4232;SDS011;2130;48.472;11.934;2024-03-02T00:15:40;12.53;;;4.90;;
4232;SDS011;2130;48.472;11.934;2024-03-02T00:18:10;12.40;;;3.23;;
4232;SDS011;2130;48.472;11.934;2024-03-02T00:20:39;11.23;;;4.43;;
4232;SDS011;2130;48.472;11.934;2024-03-02T00:23:08;18.33;;;4.10;;
4232;SDS011;2130;48.472;11.934;2024-03-02T00:25:37;11.20;;;4.13;;
4232;SDS011;2130;48.472;11.934;2024-03-02T00:28:12;11.90;;;4.30;;
4232;SDS011;2130;48.472;11.934;2024-03-02T00:30:52;55.67;;;17.30;;
4232;SDS011;2130;48.472;11.934;2024-03-02T00:33:25;52.60;;;19.80;;
4232;SDS011;2130;48.472;11.934;2024-03-02T00:35:55;39.03;;;15.37;;
4232;SDS011;2130;48.472;11.934;2024-03-02T00:38:23;22.80;;;9.00;;
4232;SDS011;2130;48.472;11.934;2024-03-02T00:40:51;17.80;;;6.73;;
4232;SDS011;2130;48.472;11.934;2024-03-02T00:43:37;24.67;;;8.50;;
4232;SDS011;2130;48.472;11.934;2024-03-02T00:46:13;37.73;;;14.43;;
4232;SDS011;2130;48.472;11.934;2024-03-02T00:48:55;18.97;;;7.40;;
4232;SDS011;2130;48.472;11.934;2024-03-02T00:51:25;21.93;;;8.10;;
4232;SDS011;2130;48.472;11.934;2024-03-02T00:53:55;32.67;;;11.70;;
4232;SDS011;2130;48.472;11.934;2024-03-02T00:56:25;34.60;;;11.63;;
4232;SDS011;2130;48.472;11.934;2024-03-02T00:58:54;22.00;;;9.60;;
4232;SDS011;2130;48.472;11.934;2024-03-02T01:01:23;17.00;;;6.50;;
4232;SDS011;2130;48.472;11.934;2024-03-02T01:03:51;16.27;;;6.30;;
4232;SDS011;2130;48.472;11.934;2024-03-02T01:06:20;22.70;;;6.33;;
4232;SDS011;2130;48.472;11.934;2024-03-02T01:08:49;16.33;;;6.57;;
4232;SDS011;2130;48.472;11.934;2024-03-02T01:11:19;18.30;;;6.60;;
4232;SDS011;2130;48.472;11.934;2024-03-02T01:13:49;16.93;;;6.07;;
4232;SDS011;2130;48.472;11.934;2024-03-02T01:16:20;18.57;;;8.30;;
4232;SDS011;2130;48.472;11.934;2024-03-02T01:18:48;25.70;;;10.33;;
4232;SDS011;2130;48.472;11.934;2024-03-02T01:21:16;25.23;;;8.20;;
4232;SDS011;2130;48.472;11.934;2024-03-02T01:23:47;31.43;;;9.53;;
4232;SDS011;2130;48.472;11.934;2024-03-02T01:26:15;31.80;;;9.83;;
4232;SDS011;2130;48.472;11.934;2024-03-02T01:28:43;18.10;;;7.40;;
4232;SDS011;2130;48.472;11.934;2024-03-02T01:31:11;17.10;;;6.93;;
4232;SDS011;2130;48.472;11.934;2024-03-02T01:33:41;15.20;;;5.80;;
4232;SDS011;2130;48.472;11.934;2024-03-02T01:36:09;13.67;;;5.03;;
4232;SDS011;2130;48.472;11.934;2024-03-02T01:38:37;17.90;;;4.43;;
4232;SDS011;2130;48.472;11.934;2024-03-02T01:41:05;12.30;;;4.53;;
4232;SDS011;2130;48.472;11.934;2024-03-02T01:43:33;11.60;;;4.40;;
4232;SDS011;2130;48.472;11.934;2024-03-02T01:46:05;11.53;;;3.87;;
4232;SDS011;2130;48.472;11.934;2024-03-02T01:48:33;13.30;;;4.97;;
4232;SDS011;2130;48.472;11.934;2024-03-02T01:51:03;13.20;;;4.87;;
4232;SDS011;2130;48.472;11.934;2024-03-02T01:53:32;11.83;;;4.23;;
4232;SDS011;2130;48.472;11.934;2024-03-02T01:56:01;21.37;;;5.80;;
4232;SDS011;2130;48.472;11.934;2024-03-02T01:58:29;15.70;;;4.33;;
4232;SDS011;2130;48.472;11.934;2024-03-02T02:00:57;16.53;;;5.90;;
4232;SDS011;2130;48.472;11.934;2024-03-02T02:03:26;17.93;;;4.57;;
4232;SDS011;2130;48.472;11.934;2024-03-02T02:05:54;14.43;;;4.70;;
4232;SDS011;2130;48.472;11.934;2024-03-02T02:08:24;10.73;;;4.00;;
4232;SDS011;2130;48.472;11.934;2024-03-02T02:10:52;13.87;;;4.80;;
4232;SDS011;2130;48.472;11.934;2024-03-02T02:13:20;12.10;;;4.57;;
4232;SDS011;2130;48.472;11.934;2024-03-02T02:15:48;15.90;;;5.07;;
4232;SDS011;2130;48.472;11.934;2024-03-02T02:18:17;13.87;;;3.93;;
4232;SDS011;2130;48.472;11.934;2024-03-02T02:20:45;16.80;;;4.53;;
4232;SDS011;2130;48.472;11.934;2024-03-02T02:23:14;13.50;;;4.33;;
4232;SDS011;2130;48.472;11.934;2024-03-02T02:25:42;17.30;;;5.33;;
4232;SDS011;2130;48.472;11.934;2024-03-02T02:28:11;14.63;;;4.70;;
4232;SDS011;2130;48.472;11.934;2024-03-02T02:30:39;13.77;;;5.07;;
4232;SDS011;2130;48.472;11.934;2024-03-02T02:33:07;13.77;;;5.17;;
4232;SDS011;2130;48.472;11.934;2024-03-02T02:35:35;16.80;;;5.90;;
4232;SDS011;2130;48.472;11.934;2024-03-02T02:38:04;15.03;;;4.53;;
4232;SDS011;2130;48.472;11.934;2024-03-02T02:40:34;16.40;;;5.30;;
4232;SDS011;2130;48.472;11.934;2024-03-02T02:43:02;11.20;;;4.37;;
4232;SDS011;2130;48.472;11.934;2024-03-02T02:45:30;13.10;;;4.93;;
4232;SDS011;2130;48.472;11.934;2024-03-02T02:47:59;12.40;;;4.50;;
4232;SDS011;2130;48.472;11.934;2024-03-02T02:50:28;16.40;;;4.83;;
4232;SDS011;2130;48.472;11.934;2024-03-02T02:52:56;13.43;;;4.90;;
4232;SDS011;2130;48.472;11.934;2024-03-02T02:55:24;14.20;;;5.23;;
4232;SDS011;2130;48.472;11.934;2024-03-02T02:57:54;14.40;;;4.80;;
4232;SDS011;2130;48.472;11.934;2024-03-02T03:00:22;16.73;;;5.30;;
4232;SDS011;2130;48.472;11.934;2024-03-02T03:02:50;18.57;;;5.30;;
4232;SDS011;2130;48.472;11.934;2024-03-02T03:05:19;13.87;;;4.53;;
4232;SDS011;2130;48.472;11.934;2024-03-02T03:07:46;13.03;;;5.20;;
4232;SDS011;2130;48.472;11.934;2024-03-02T03:10:16;17.93;;;6.73;;
4232;SDS011;2130;48.472;11.934;2024-03-02T03:12:45;13.33;;;5.00;;
4232;SDS011;2130;48.472;11.934;2024-03-02T03:15:14;18.37;;;6.70;;
4232;SDS011;2130;48.472;11.934;2024-03-02T03:17:44;16.00;;;6.30;;
4232;SDS011;2130;48.472;11.934;2024-03-02T03:20:14;14.33;;;6.20;;
4232;SDS011;2130;48.472;11.934;2024-03-02T03:22:42;15.47;;;5.27;;
4232;SDS011;2130;48.472;11.934;2024-03-02T03:25:10;14.07;;;6.13;;
4232;SDS011;2130;48.472;11.934;2024-03-02T03:27:39;14.27;;;4.87;;
4232;SDS011;2130;48.472;11.934;2024-03-02T03:30:08;15.00;;;6.83;;
4232;SDS011;2130;48.472;11.934;2024-03-02T03:32:39;16.97;;;6.07;;
4232;SDS011;2130;48.472;11.934;2024-03-02T03:35:07;18.40;;;6.30;;
4232;SDS011;2130;48.472;11.934;2024-03-02T03:37:35;19.30;;;6.70;;
4232;SDS011;2130;48.472;11.934;2024-03-02T03:40:04;15.70;;;6.40;;
4232;SDS011;2130;48.472;11.934;2024-03-02T03:42:37;14.57;;;5.80;;
4232;SDS011;2130;48.472;11.934;2024-03-02T03:45:06;19.20;;;6.00;;
4232;SDS011;2130;48.472;11.934;2024-03-02T03:47:35;17.37;;;6.93;;
4232;SDS011;2130;48.472;11.934;2024-03-02T03:50:05;16.50;;;6.93;;
4232;SDS011;2130;48.472;11.934;2024-03-02T03:52:34;15.33;;;5.60;;
4232;SDS011;2130;48.472;11.934;2024-03-02T03:55:02;15.13;;;5.90;;
4232;SDS011;2130;48.472;11.934;2024-03-02T03:57:32;19.77;;;7.10;;
4232;SDS011;2130;48.472;11.934;2024-03-02T04:00:00;16.93;;;6.30;;
4232;SDS011;2130;48.472;11.934;2024-03-02T04:02:37;21.80;;;6.97;;
4232;SDS011;2130;48.472;11.934;2024-03-02T04:05:07;18.53;;;7.03;;
4232;SDS011;2130;48.472;11.934;2024-03-02T04:07:38;16.50;;;5.67;;
4232;SDS011;2130;48.472;11.934;2024-03-02T04:10:08;17.13;;;5.13;;
4232;SDS011;2130;48.472;11.934;2024-03-02T04:12:36;17.20;;;6.50;;
4232;SDS011;2130;48.472;11.934;2024-03-02T04:15:05;16.27;;;6.00;;
4232;SDS011;2130;48.472;11.934;2024-03-02T04:17:33;17.93;;;6.30;;
4232;SDS011;2130;48.472;11.934;2024-03-02T04:20:02;19.57;;;6.90;;
4232;SDS011;2130;48.472;11.934;2024-03-02T04:22:34;18.77;;;7.33;;
4232;SDS011;2130;48.472;11.934;2024-03-02T04:25:02;18.47;;;5.93;;
4232;SDS011;2130;48.472;11.934;2024-03-02T04:27:34;17.97;;;6.10;;
4232;SDS011;2130;48.472;11.934;2024-03-02T04:30:02;19.63;;;7.27;;
4232;SDS011;2130;48.472;11.934;2024-03-02T04:32:32;16.67;;;6.63;;
4232;SDS011;2130;48.472;11.934;2024-03-02T04:35:00;15.60;;;5.50;;
4232;SDS011;2130;48.472;11.934;2024-03-02T04:37:28;18.53;;;6.80;;
4232;SDS011;2130;48.472;11.934;2024-03-02T04:39:59;19.03;;;6.87;;
4232;SDS011;2130;48.472;11.934;2024-03-02T04:42:27;17.67;;;6.63;;
4232;SDS011;2130;48.472;11.934;2024-03-02T04:44:55;14.67;;;6.07;;
4232;SDS011;2130;48.472;11.934;2024-03-02T04:47:23;22.70;;;6.70;;
4232;SDS011;2130;48.472;11.934;2024-03-02T04:49:51;22.53;;;7.10;;
4232;SDS011;2130;48.472;11.934;2024-03-02T04:52:19;18.10;;;6.47;;
4232;SDS011;2130;48.472;11.934;2024-03-02T04:54:47;21.33;;;5.97;;
4232;SDS011;2130;48.472;11.934;2024-03-02T04:57:34;18.33;;;6.60;;
4232;SDS011;2130;48.472;11.934;2024-03-02T05:00:03;15.60;;;6.50;;
4232;SDS011;2130;48.472;11.934;2024-03-02T05:02:33;15.10;;;6.03;;
4232;SDS011;2130;48.472;11.934;2024-03-02T05:05:01;15.87;;;5.80;;
4232;SDS011;2130;48.472;11.934;2024-03-02T05:07:30;13.90;;;5.33;;
4232;SDS011;2130;48.472;11.934;2024-03-02T05:09:58;18.10;;;7.17;;
4232;SDS011;2130;48.472;11.934;2024-03-02T05:12:26;21.67;;;7.20;;
4232;SDS011;2130;48.472;11.934;2024-03-02T05:15:23;15.80;;;5.97;;
4232;SDS011;2130;48.472;11.934;2024-03-02T05:17:52;18.60;;;6.50;;
4232;SDS011;2130;48.472;11.934;2024-03-02T05:20:20;24.67;;;5.77;;
4232;SDS011;2130;48.472;11.934;2024-03-02T05:22:48;16.40;;;6.20;;
4232;SDS011;2130;48.472;11.934;2024-03-02T05:25:16;16.40;;;6.30;;
4232;SDS011;2130;48.472;11.934;2024-03-02T05:27:45;16.20;;;5.67;;
4232;SDS011;2130;48.472;11.934;2024-03-02T05:30:13;16.40;;;5.60;;
4232;SDS011;2130;48.472;11.934;2024-03-02T05:32:43;14.77;;;6.00;;
4232;SDS011;2130;48.472;11.934;2024-03-02T05:35:11;21.80;;;7.77;;
4232;SDS011;2130;48.472;11.934;2024-03-02T05:37:39;22.70;;;8.37;;
4232;SDS011;2130;48.472;11.934;2024-03-02T05:40:08;15.60;;;6.63;;
4232;SDS011;2130;48.472;11.934;2024-03-02T05:42:37;22.80;;;5.90;;
4232;SDS011;2130;48.472;11.934;2024-03-02T05:45:08;20.10;;;5.80;;
4232;SDS011;2130;48.472;11.934;2024-03-02T05:47:36;19.57;;;6.70;;
4232;SDS011;2130;48.472;11.934;2024-03-02T05:50:07;18.30;;;7.27;;
4232;SDS011;2130;48.472;11.934;2024-03-02T05:52:35;21.20;;;6.10;;
4232;SDS011;2130;48.472;11.934;2024-03-02T05:55:03;17.50;;;6.50;;
4232;SDS011;2130;48.472;11.934;2024-03-02T05:57:32;17.37;;;6.90;;
4232;SDS011;2130;48.472;11.934;2024-03-02T06:00:14;19.40;;;7.17;;
4232;SDS011;2130;48.472;11.934;2024-03-02T06:02:44;18.23;;;6.87;;
4232;SDS011;2130;48.472;11.934;2024-03-02T06:05:13;18.13;;;6.90;;
4232;SDS011;2130;48.472;11.934;2024-03-02T06:07:42;15.63;;;5.93;;
4232;SDS011;2130;48.472;11.934;2024-03-02T06:10:10;19.10;;;7.23;;
4232;SDS011;2130;48.472;11.934;2024-03-02T06:12:40;16.93;;;6.70;;
4232;SDS011;2130;48.472;11.934;2024-03-02T06:15:08;17.60;;;6.90;;
4232;SDS011;2130;48.472;11.934;2024-03-02T06:17:37;20.67;;;5.60;;
4232;SDS011;2130;48.472;11.934;2024-03-02T06:20:05;18.60;;;7.10;;
4232;SDS011;2130;48.472;11.934;2024-03-02T06:22:36;24.53;;;6.73;;
4232;SDS011;2130;48.472;11.934;2024-03-02T06:25:05;18.53;;;6.67;;
4232;SDS011;2130;48.472;11.934;2024-03-02T06:27:33;21.60;;;7.60;;
4232;SDS011;2130;48.472;11.934;2024-03-02T06:30:02;20.27;;;7.33;;
4232;SDS011;2130;48.472;11.934;2024-03-02T06:32:30;18.43;;;6.70;;
4232;SDS011;2130;48.472;11.934;2024-03-02T06:34:59;25.07;;;7.93;;
4232;SDS011;2130;48.472;11.934;2024-03-02T06:37:27;20.03;;;7.10;;
4232;SDS011;2130;48.472;11.934;2024-03-02T06:39:56;18.10;;;7.37;;
4232;SDS011;2130;48.472;11.934;2024-03-02T06:42:25;16.90;;;7.07;;
4232;SDS011;2130;48.472;11.934;2024-03-02T06:44:53;17.63;;;6.20;;
4232;SDS011;2130;48.472;11.934;2024-03-02T06:47:21;16.10;;;6.50;;
4232;SDS011;2130;48.472;11.934;2024-03-02T06:49:49;21.70;;;7.20;;
4232;SDS011;2130;48.472;11.934;2024-03-02T06:52:17;18.03;;;6.40;;
4232;SDS011;2130;48.472;11.934;2024-03-02T06:54:49;18.60;;;7.13;;
4232;SDS011;2130;48.472;11.934;2024-03-02T06:57:18;16.60;;;6.83;;
4232;SDS011;2130;48.472;11.934;2024-03-02T06:59:47;19.93;;;7.00;;
4232;SDS011;2130;48.472;11.934;2024-03-02T07:02:17;21.53;;;8.13;;
4232;SDS011;2130;48.472;11.934;2024-03-02T07:04:45;16.93;;;7.27;;
4232;SDS011;2130;48.472;11.934;2024-03-02T07:07:13;17.60;;;7.60;;
4232;SDS011;2130;48.472;11.934;2024-03-02T07:09:41;18.17;;;7.67;;
4232;SDS011;2130;48.472;11.934;2024-03-02T07:12:09;15.37;;;6.47;;
4232;SDS011;2130;48.472;11.934;2024-03-02T07:14:39;14.80;;;6.30;;
4232;SDS011;2130;48.472;11.934;2024-03-02T07:17:31;21.70;;;7.53;;
4232;SDS011;2130;48.472;11.934;2024-03-02T07:19:59;20.93;;;6.50;;
4232;SDS011;2130;48.472;11.934;2024-03-02T07:22:27;15.57;;;5.93;;
4232;SDS011;2130;48.472;11.934;2024-03-02T07:24:55;17.70;;;6.40;;
4232;SDS011;2130;48.472;11.934;2024-03-02T07:27:23;23.80;;;8.17;;
4232;SDS011;2130;48.472;11.934;2024-03-02T07:29:53;17.70;;;6.80;;
4232;SDS011;2130;48.472;11.934;2024-03-02T07:32:22;17.30;;;7.10;;
4232;SDS011;2130;48.472;11.934;2024-03-02T07:34:50;18.20;;;6.93;;
4232;SDS011;2130;48.472;11.934;2024-03-02T07:37:18;18.73;;;7.60;;
4232;SDS011;2130;48.472;11.934;2024-03-02T07:39:46;18.33;;;6.73;;
4232;SDS011;2130;48.472;11.934;2024-03-02T07:42:15;20.60;;;7.57;;
4232;SDS011;2130;48.472;11.934;2024-03-02T07:44:43;17.27;;;6.33;;
4232;SDS011;2130;48.472;11.934;2024-03-02T07:47:13;23.93;;;8.23;;
4232;SDS011;2130;48.472;11.934;2024-03-02T07:49:41;18.33;;;6.83;;
4232;SDS011;2130;48.472;11.934;2024-03-02T07:52:09;16.83;;;7.60;;
4232;SDS011;2130;48.472;11.934;2024-03-02T07:54:37;21.70;;;7.27;;
4232;SDS011;2130;48.472;11.934;2024-03-02T07:57:05;17.43;;;6.90;;
4232;SDS011;2130;48.472;11.934;2024-03-02T07:59:35;19.60;;;6.70;;
4232;SDS011;2130;48.472;11.934;2024-03-02T08:02:03;18.67;;;7.00;;
4232;SDS011;2130;48.472;11.934;2024-03-02T08:04:32;18.17;;;6.90;;
4232;SDS011;2130;48.472;11.934;2024-03-02T08:07:00;21.27;;;7.77;;
4232;SDS011;2130;48.472;11.934;2024-03-02T08:09:29;20.70;;;7.03;;
4232;SDS011;2130;48.472;11.934;2024-03-02T08:11:57;18.73;;;7.67;;
4232;SDS011;2130;48.472;11.934;2024-03-02T08:14:25;25.47;;;8.70;;
4232;SDS011;2130;48.472;11.934;2024-03-02T08:16:53;24.17;;;8.57;;
4232;SDS011;2130;48.472;11.934;2024-03-02T08:19:22;18.33;;;7.20;;
4232;SDS011;2130;48.472;11.934;2024-03-02T08:21:51;20.17;;;8.10;;
4232;SDS011;2130;48.472;11.934;2024-03-02T08:24:19;18.90;;;6.80;;
4232;SDS011;2130;48.472;11.934;2024-03-02T08:26:47;19.03;;;7.50;;
4232;SDS011;2130;48.472;11.934;2024-03-02T08:29:16;23.10;;;8.87;;
4232;SDS011;2130;48.472;11.934;2024-03-02T08:31:44;15.57;;;7.77;;
4232;SDS011;2130;48.472;11.934;2024-03-02T08:34:12;24.80;;;8.77;;
4232;SDS011;2130;48.472;11.934;2024-03-02T08:36:40;19.83;;;8.60;;
4232;SDS011;2130;48.472;11.934;2024-03-02T08:39:09;30.00;;;8.03;;
4232;SDS011;2130;48.472;11.934;2024-03-02T08:41:42;22.20;;;9.60;;
4232;SDS011;2130;48.472;11.934;2024-03-02T08:44:12;30.10;;;8.17;;
4232;SDS011;2130;48.472;11.934;2024-03-02T08:46:40;21.60;;;9.13;;
4232;SDS011;2130;48.472;11.934;2024-03-02T08:49:08;26.43;;;10.10;;
4232;SDS011;2130;48.472;11.934;2024-03-02T08:51:36;27.13;;;8.97;;
4232;SDS011;2130;48.472;11.934;2024-03-02T08:54:05;27.73;;;9.40;;
4232;SDS011;2130;48.472;11.934;2024-03-02T08:56:34;27.40;;;9.67;;
4232;SDS011;2130;48.472;11.934;2024-03-02T08:59:03;28.93;;;7.90;;
4232;SDS011;2130;48.472;11.934;2024-03-02T09:01:31;22.97;;;10.00;;
4232;SDS011;2130;48.472;11.934;2024-03-02T09:04:00;20.20;;;7.80;;
4232;SDS011;2130;48.472;11.934;2024-03-02T09:06:29;22.23;;;8.23;;
4232;SDS011;2130;48.472;11.934;2024-03-02T09:09:00;24.37;;;8.00;;
4232;SDS011;2130;48.472;11.934;2024-03-02T09:11:28;24.07;;;9.33;;
4232;SDS011;2130;48.472;11.934;2024-03-02T09:13:57;22.90;;;8.40;;
4232;SDS011;2130;48.472;11.934;2024-03-02T09:16:25;21.83;;;8.20;;
4232;SDS011;2130;48.472;11.934;2024-03-02T09:18:57;20.10;;;8.37;;
4232;SDS011;2130;48.472;11.934;2024-03-02T09:21:26;21.27;;;8.53;;
4232;SDS011;2130;48.472;11.934;2024-03-02T09:23:56;17.47;;;7.97;;
4232;SDS011;2130;48.472;11.934;2024-03-02T09:26:24;18.60;;;7.47;;
4232;SDS011;2130;48.472;11.934;2024-03-02T09:28:53;18.50;;;7.70;;
4232;SDS011;2130;48.472;11.934;2024-03-02T09:31:22;19.03;;;8.50;;
4232;SDS011;2130;48.472;11.934;2024-03-02T09:33:50;29.53;;;8.93;;
4232;SDS011;2130;48.472;11.934;2024-03-02T09:36:18;19.10;;;7.57;;
4232;SDS011;2130;48.472;11.934;2024-03-02T09:38:47;23.13;;;9.27;;
4232;SDS011;2130;48.472;11.934;2024-03-02T09:41:15;19.80;;;7.30;;
4232;SDS011;2130;48.472;11.934;2024-03-02T09:43:43;19.63;;;8.10;;
4232;SDS011;2130;48.472;11.934;2024-03-02T09:46:12;23.70;;;8.20;;
4232;SDS011;2130;48.472;11.934;2024-03-02T09:48:41;18.53;;;8.40;;
4232;SDS011;2130;48.472;11.934;2024-03-02T09:51:10;28.83;;;8.53;;
4232;SDS011;2130;48.472;11.934;2024-03-02T09:53:39;21.50;;;8.93;;
4232;SDS011;2130;48.472;11.934;2024-03-02T09:56:08;22.13;;;8.77;;
4232;SDS011;2130;48.472;11.934;2024-03-02T09:58:36;27.07;;;9.40;;
4232;SDS011;2130;48.472;11.934;2024-03-02T10:01:05;22.40;;;7.50;;
4232;SDS011;2130;48.472;11.934;2024-03-02T10:03:33;24.23;;;8.57;;
4232;SDS011;2130;48.472;11.934;2024-03-02T10:06:22;17.83;;;7.50;;
4232;SDS011;2130;48.472;11.934;2024-03-02T10:08:51;27.73;;;9.10;;
4232;SDS011;2130;48.472;11.934;2024-03-02T10:11:29;20.70;;;8.73;;
4232;SDS011;2130;48.472;11.934;2024-03-02T10:14:04;21.17;;;7.80;;
4232;SDS011;2130;48.472;11.934;2024-03-02T10:16:35;19.50;;;8.47;;
4232;SDS011;2130;48.472;11.934;2024-03-02T10:19:16;21.30;;;7.73;;
4232;SDS011;2130;48.472;11.934;2024-03-02T10:21:47;20.27;;;8.43;;
4232;SDS011;2130;48.472;11.934;2024-03-02T10:24:16;24.50;;;9.80;;
4232;SDS011;2130;48.472;11.934;2024-03-02T10:26:44;22.83;;;8.47;;
4232;SDS011;2130;48.472;11.934;2024-03-02T10:29:12;19.60;;;8.90;;
4232;SDS011;2130;48.472;11.934;2024-03-02T10:31:41;24.27;;;9.43;;
4232;SDS011;2130;48.472;11.934;2024-03-02T10:34:11;17.30;;;7.43;;
4232;SDS011;2130;48.472;11.934;2024-03-02T10:36:40;18.73;;;7.60;;
4232;SDS011;2130;48.472;11.934;2024-03-02T10:39:11;18.17;;;7.53;;
4232;SDS011;2130;48.472;11.934;2024-03-02T10:41:40;20.57;;;7.60;;
4232;SDS011;2130;48.472;11.934;2024-03-02T10:44:09;18.93;;;7.20;;
4232;SDS011;2130;48.472;11.934;2024-03-02T10:46:37;19.07;;;7.70;;
4232;SDS011;2130;48.472;11.934;2024-03-02T10:49:05;24.60;;;7.23;;
4232;SDS011;2130;48.472;11.934;2024-03-02T10:51:35;19.07;;;7.30;;
4232;SDS011;2130;48.472;11.934;2024-03-02T10:54:04;16.90;;;7.17;;
4232;SDS011;2130;48.472;11.934;2024-03-02T10:56:34;17.60;;;6.80;;
4232;SDS011;2130;48.472;11.934;2024-03-02T10:59:06;14.43;;;5.93;;
4232;SDS011;2130;48.472;11.934;2024-03-02T11:01:50;14.60;;;6.10;;
4232;SDS011;2130;48.472;11.934;2024-03-02T11:04:18;25.00;;;7.77;;
4232;SDS011;2130;48.472;11.934;2024-03-02T11:06:48;15.53;;;6.37;;
4232;SDS011;2130;48.472;11.934;2024-03-02T11:09:18;16.63;;;6.40;;
4232;SDS011;2130;48.472;11.934;2024-03-02T11:11:49;14.67;;;6.60;;
4232;SDS011;2130;48.472;11.934;2024-03-02T11:14:24;13.20;;;6.23;;
4232;SDS011;2130;48.472;11.934;2024-03-02T11:16:52;16.23;;;6.73;;
4232;SDS011;2130;48.472;11.934;2024-03-02T11:19:20;18.70;;;6.80;;
4232;SDS011;2130;48.472;11.934;2024-03-02T11:21:49;16.50;;;6.80;;
4232;SDS011;2130;48.472;11.934;2024-03-02T11:24:30;13.00;;;5.80;;
4232;SDS011;2130;48.472;11.934;2024-03-02T11:27:05;16.47;;;6.60;;
4232;SDS011;2130;48.472;11.934;2024-03-02T11:29:44;17.40;;;7.10;;
4232;SDS011;2130;48.472;11.934;2024-03-02T11:32:13;16.17;;;7.00;;
4232;SDS011;2130;48.472;11.934;2024-03-02T11:34:46;15.33;;;6.40;;
4232;SDS011;2130;48.472;11.934;2024-03-02T11:37:16;18.33;;;7.40;;
4232;SDS011;2130;48.472;11.934;2024-03-02T11:39:45;20.17;;;6.40;;
4232;SDS011;2130;48.472;11.934;2024-03-02T11:42:15;16.20;;;6.33;;
4232;SDS011;2130;48.472;11.934;2024-03-02T11:44:44;16.47;;;6.40;;
4232;SDS011;2130;48.472;11.934;2024-03-02T11:47:13;16.23;;;6.10;;
4232;SDS011;2130;48.472;11.934;2024-03-02T11:49:43;18.63;;;6.87;;
4232;SDS011;2130;48.472;11.934;2024-03-02T11:52:12;26.07;;;6.70;;
4232;SDS011;2130;48.472;11.934;2024-03-02T11:54:42;14.20;;;5.33;;
4232;SDS011;2130;48.472;11.934;2024-03-02T11:57:16;12.83;;;6.20;;
4232;SDS011;2130;48.472;11.934;2024-03-02T11:59:46;14.63;;;6.50;;
4232;SDS011;2130;48.472;11.934;2024-03-02T12:02:15;15.07;;;5.70;;
4232;SDS011;2130;48.472;11.934;2024-03-02T12:04:45;16.07;;;6.87;;
4232;SDS011;2130;48.472;11.934;2024-03-02T12:07:18;15.43;;;6.20;;
4232;SDS011;2130;48.472;11.934;2024-03-02T12:09:47;14.03;;;6.37;;
4232;SDS011;2130;48.472;11.934;2024-03-02T12:12:16;14.93;;;6.50;;
4232;SDS011;2130;48.472;11.934;2024-03-02T12:14:51;18.10;;;6.03;;
4232;SDS011;2130;48.472;11.934;2024-03-02T12:17:21;13.00;;;6.10;;
4232;SDS011;2130;48.472;11.934;2024-03-02T12:19:50;14.37;;;6.23;;
4232;SDS011;2130;48.472;11.934;2024-03-02T12:22:18;18.03;;;6.30;;
4232;SDS011;2130;48.472;11.934;2024-03-02T12:24:46;13.77;;;6.13;;
4232;SDS011;2130;48.472;11.934;2024-03-02T12:27:14;14.47;;;5.80;;
4232;SDS011;2130;48.472;11.934;2024-03-02T12:29:45;13.90;;;6.00;;
4232;SDS011;2130;48.472;11.934;2024-03-02T12:32:13;14.97;;;6.87;;
4232;SDS011;2130;48.472;11.934;2024-03-02T12:34:41;12.63;;;5.47;;
4232;SDS011;2130;48.472;11.934;2024-03-02T12:37:11;13.57;;;5.20;;
4232;SDS011;2130;48.472;11.934;2024-03-02T12:39:40;13.23;;;5.10;;
4232;SDS011;2130;48.472;11.934;2024-03-02T12:42:08;21.40;;;6.90;;
4232;SDS011;2130;48.472;11.934;2024-03-02T12:44:37;13.70;;;6.20;;
4232;SDS011;2130;48.472;11.934;2024-03-02T12:47:05;15.50;;;6.23;;
4232;SDS011;2130;48.472;11.934;2024-03-02T12:49:34;15.90;;;5.70;;
4232;SDS011;2130;48.472;11.934;2024-03-02T12:52:03;12.43;;;5.60;;
4232;SDS011;2130;48.472;11.934;2024-03-02T12:54:31;14.97;;;5.90;;
4232;SDS011;2130;48.472;11.934;2024-03-02T12:57:01;13.10;;;6.00;;
4232;SDS011;2130;48.472;11.934;2024-03-02T12:59:30;18.53;;;5.87;;
4232;SDS011;2130;48.472;11.934;2024-03-02T13:01:59;15.20;;;6.30;;
4232;SDS011;2130;48.472;11.934;2024-03-02T13:04:28;13.93;;;5.97;;
4232;SDS011;2130;48.472;11.934;2024-03-02T13:06:57;14.73;;;5.73;;
4232;SDS011;2130;48.472;11.934;2024-03-02T13:09:26;13.60;;;5.60;;
4232;SDS011;2130;48.472;11.934;2024-03-02T13:11:54;13.83;;;6.13;;
4232;SDS011;2130;48.472;11.934;2024-03-02T13:14:23;15.67;;;6.20;;
4232;SDS011;2130;48.472;11.934;2024-03-02T13:16:52;16.50;;;5.10;;
4232;SDS011;2130;48.472;11.934;2024-03-02T13:19:22;12.80;;;5.50;;
4232;SDS011;2130;48.472;11.934;2024-03-02T13:21:50;14.67;;;5.33;;
4232;SDS011;2130;48.472;11.934;2024-03-02T13:24:19;13.33;;;4.87;;
4232;SDS011;2130;48.472;11.934;2024-03-02T13:26:47;11.03;;;4.90;;
4232;SDS011;2130;48.472;11.934;2024-03-02T13:29:15;12.13;;;5.07;;
4232;SDS011;2130;48.472;11.934;2024-03-02T13:31:44;13.30;;;5.20;;
4232;SDS011;2130;48.472;11.934;2024-03-02T13:34:12;13.67;;;5.17;;
4232;SDS011;2130;48.472;11.934;2024-03-02T13:36:41;16.60;;;5.30;;
4232;SDS011;2130;48.472;11.934;2024-03-02T13:39:09;12.80;;;5.60;;
4232;SDS011;2130;48.472;11.934;2024-03-02T13:41:39;20.13;;;5.97;;
4232;SDS011;2130;48.472;11.934;2024-03-02T13:44:07;16.60;;;5.00;;
4232;SDS011;2130;48.472;11.934;2024-03-02T13:46:36;12.27;;;5.20;;
4232;SDS011;2130;48.472;11.934;2024-03-02T13:49:04;11.90;;;4.00;;
4232;SDS011;2130;48.472;11.934;2024-03-02T13:51:32;11.90;;;4.43;;
4232;SDS011;2130;48.472;11.934;2024-03-02T13:54:01;16.33;;;5.30;;
4232;SDS011;2130;48.472;11.934;2024-03-02T13:56:29;12.80;;;4.83;;
4232;SDS011;2130;48.472;11.934;2024-03-02T13:58:59;11.07;;;5.07;;
4232;SDS011;2130;48.472;11.934;2024-03-02T14:01:27;13.17;;;4.87;;
4232;SDS011;2130;48.472;11.934;2024-03-02T14:03:55;14.23;;;5.63;;
4232;SDS011;2130;48.472;11.934;2024-03-02T14:06:23;16.73;;;4.93;;
4232;SDS011;2130;48.472;11.934;2024-03-02T14:08:53;14.27;;;5.57;;
4232;SDS011;2130;48.472;11.934;2024-03-02T14:11:22;16.73;;;5.63;;
4232;SDS011;2130;48.472;11.934;2024-03-02T14:13:51;11.87;;;5.13;;
4232;SDS011;2130;48.472;11.934;2024-03-02T14:16:21;13.00;;;4.77;;
4232;SDS011;2130;48.472;11.934;2024-03-02T14:18:49;12.07;;;5.53;;
4232;SDS011;2130;48.472;11.934;2024-03-02T14:21:17;15.60;;;5.03;;
4232;SDS011;2130;48.472;11.934;2024-03-02T14:23:45;16.30;;;5.30;;
4232;SDS011;2130;48.472;11.934;2024-03-02T14:26:13;12.67;;;5.10;;
4232;SDS011;2130;48.472;11.934;2024-03-02T14:28:42;14.00;;;5.33;;
4232;SDS011;2130;48.472;11.934;2024-03-02T14:31:17;15.50;;;6.50;;
4232;SDS011;2130;48.472;11.934;2024-03-02T14:33:46;12.57;;;5.00;;
4232;SDS011;2130;48.472;11.934;2024-03-02T14:36:15;19.13;;;5.37;;
4232;SDS011;2130;48.472;11.934;2024-03-02T14:38:43;13.33;;;4.87;;
4232;SDS011;2130;48.472;11.934;2024-03-02T14:41:11;17.77;;;5.77;;
4232;SDS011;2130;48.472;11.934;2024-03-02T14:43:39;16.03;;;5.63;;
4232;SDS011;2130;48.472;11.934;2024-03-02T14:46:09;15.07;;;5.10;;
4232;SDS011;2130;48.472;11.934;2024-03-02T14:48:37;11.53;;;4.80;;
4232;SDS011;2130;48.472;11.934;2024-03-02T14:51:05;14.73;;;5.40;;
4232;SDS011;2130;48.472;11.934;2024-03-02T14:53:33;11.53;;;4.80;;
4232;SDS011;2130;48.472;11.934;2024-03-02T14:56:02;12.73;;;4.73;;
4232;SDS011;2130;48.472;11.934;2024-03-02T14:58:30;16.50;;;5.40;;
4232;SDS011;2130;48.472;11.934;2024-03-02T15:00:59;13.97;;;5.53;;